createdAt,value
2022-09-13T00:00:10.457Z,2.20
2022-09-13T00:02:38.211Z,2.30
2022-09-13T00:05:08.021Z,2.42
2022-09-13T00:07:35.696Z,2.72
2022-09-13T00:10:03.412Z,2.83
2022-09-13T00:12:31.135Z,2.28
2022-09-13T00:14:59.023Z,2.60
2022-09-13T00:17:27.657Z,2.03
2022-09-13T00:19:55.317Z,2.33
2022-09-13T00:22:24.351Z,2.35
2022-09-13T00:24:51.994Z,2.33
2022-09-13T00:27:19.861Z,2.47
2022-09-13T00:29:47.527Z,2.55
2022-09-13T00:32:15.291Z,2.13
2022-09-13T00:34:42.984Z,3.67
2022-09-13T00:37:10.971Z,2.58
2022-09-13T00:39:40.020Z,2.03
2022-09-13T00:42:12.970Z,1.90
2022-09-13T00:45:04.172Z,2.35
2022-09-13T00:47:39.880Z,1.98
2022-09-13T00:50:17.868Z,2.55
2022-09-13T00:52:51.416Z,2.33
2022-09-13T00:55:27.783Z,2.08
2022-09-13T00:58:03.045Z,2.10
2022-09-13T01:00:30.875Z,2.33
2022-09-13T01:03:03.263Z,2.30
2022-09-13T01:05:37.619Z,2.53
2022-09-13T01:08:15.961Z,2.00
2022-09-13T01:10:46.132Z,2.08
2022-09-13T01:13:20.040Z,2.30
2022-09-13T01:15:48.437Z,2.38
2022-09-13T01:18:17.110Z,2.17
2022-09-13T01:21:17.113Z,2.05
2022-09-13T01:24:23.740Z,2.72
2022-09-13T01:27:37.738Z,2.28
2022-09-13T01:30:14.288Z,2.05
2022-09-13T01:33:03.088Z,1.90
2022-09-13T01:35:46.035Z,2.20
2022-09-13T01:38:37.532Z,2.50
2022-09-13T01:41:22.944Z,1.92
2022-09-13T01:44:00.260Z,2.63
2022-09-13T01:46:38.670Z,2.25
2022-09-13T01:49:21.012Z,2.30
2022-09-13T01:52:00.332Z,2.20
2022-09-13T01:54:39.756Z,2.55
2022-09-13T01:57:16.682Z,2.00
2022-09-13T01:59:52.275Z,1.80
2022-09-13T02:02:30.465Z,2.30
2022-09-13T02:05:13.164Z,2.13
2022-09-13T02:07:46.881Z,2.28
2022-09-13T02:10:23.894Z,2.35
2022-09-13T02:12:55.043Z,2.63
2022-09-13T02:15:27.623Z,2.20
2022-09-13T02:18:06.876Z,2.47
2022-09-13T02:20:38.963Z,2.47
2022-09-13T02:23:14.287Z,2.42
2022-09-13T02:25:44.713Z,2.08
2022-09-13T02:28:20.333Z,1.95
2022-09-13T02:30:53.822Z,2.35
2022-09-13T02:33:29.814Z,2.20
2022-09-13T02:36:03.396Z,2.13
2022-09-13T02:38:35.841Z,2.15
2022-09-13T02:41:14.952Z,2.20
2022-09-13T02:43:49.631Z,1.80
2022-09-13T02:46:31.058Z,2.03
2022-09-13T02:49:13.124Z,2.28
2022-09-13T02:51:50.219Z,2.88
2022-09-13T02:54:31.144Z,2.80
2022-09-13T02:59:30.172Z,1.90
2022-09-13T03:02:06.172Z,2.30
2022-09-13T03:04:36.157Z,2.00
2022-09-13T03:07:07.585Z,2.10
2022-09-13T03:09:35.649Z,2.22
2022-09-13T03:12:25.268Z,2.47
2022-09-13T03:15:01.170Z,1.85
2022-09-13T03:17:48.323Z,1.80
2022-09-13T03:20:32.245Z,2.10
2022-09-13T03:23:27.960Z,2.28
2022-09-13T03:26:23.415Z,1.90
2022-09-13T03:29:10.116Z,2.03
2022-09-13T03:31:50.421Z,2.22
2022-09-13T03:34:31.576Z,2.25
2022-09-13T03:37:11.603Z,1.75
2022-09-13T03:39:45.068Z,2.10
2022-09-13T03:42:22.772Z,2.22
2022-09-13T03:44:54.478Z,1.92
2022-09-13T03:47:24.866Z,1.88
2022-09-13T03:49:53.725Z,1.90
2022-09-13T03:52:23.067Z,2.40
2022-09-13T03:54:51.073Z,2.05
2022-09-13T03:57:21.952Z,2.40
2022-09-13T04:02:20.572Z,2.00
2022-09-13T04:04:49.402Z,2.08
2022-09-13T04:07:20.324Z,2.38
2022-09-13T04:12:19.147Z,2.08
2022-09-13T04:14:47.491Z,1.90
2022-09-13T04:17:15.960Z,1.88
2022-09-13T04:19:45.669Z,2.20
2022-09-13T04:22:13.671Z,2.42
2022-09-13T04:24:43.168Z,2.13
2022-09-13T04:27:14.061Z,2.10
2022-09-13T04:32:10.424Z,1.52
2022-09-13T04:34:38.043Z,2.10
2022-09-13T04:37:05.841Z,2.28
2022-09-13T04:39:33.770Z,2.35
2022-09-13T04:42:02.377Z,1.92
2022-09-13T04:44:31.699Z,1.88
2022-09-13T04:47:00.149Z,1.90
2022-09-13T04:49:27.796Z,1.90
2022-09-13T04:51:55.459Z,1.90
2022-09-13T04:54:23.142Z,1.95
2022-09-13T04:56:50.771Z,2.42
2022-09-13T04:59:18.429Z,1.77
2022-09-13T05:01:47.501Z,2.15
2022-09-13T05:04:15.221Z,2.00
2022-09-13T05:06:42.844Z,1.92
2022-09-13T05:09:14.466Z,2.20
2022-09-13T05:11:43.121Z,2.00
2022-09-13T05:14:12.250Z,2.20
2022-09-13T05:16:40.500Z,1.65
2022-09-13T05:19:11.064Z,2.05
2022-09-13T05:21:39.002Z,2.17
2022-09-13T05:24:06.987Z,2.13
2022-09-13T05:26:34.721Z,2.13
2022-09-13T05:29:02.769Z,2.13
2022-09-13T05:31:33.797Z,1.95
2022-09-13T05:34:04.928Z,1.80
2022-09-13T05:36:34.374Z,1.60
2022-09-13T05:39:28.650Z,1.73
2022-09-13T05:41:50.130Z,1.98
2022-09-13T05:44:17.798Z,2.10
2022-09-13T05:46:48.521Z,1.98
2022-09-13T05:49:16.570Z,2.05
2022-09-13T05:51:45.520Z,2.35
2022-09-13T05:54:13.922Z,2.40
2022-09-13T05:56:41.885Z,1.65
2022-09-13T05:59:14.569Z,2.03
2022-09-13T06:01:42.876Z,2.38
2022-09-13T06:04:12.408Z,1.83
2022-09-13T06:06:40.309Z,2.20
2022-09-13T06:09:12.007Z,2.45
2022-09-13T06:11:39.987Z,2.17
2022-09-13T06:14:08.244Z,1.77
2022-09-13T06:16:35.872Z,1.80
2022-09-13T06:19:03.883Z,1.98
2022-09-13T06:21:31.547Z,1.85
2022-09-13T06:23:59.170Z,1.88
2022-09-13T06:26:29.518Z,1.83
2022-09-13T06:28:59.040Z,1.95
2022-09-13T06:31:29.095Z,1.85
2022-09-13T06:33:59.785Z,2.10
2022-09-13T06:36:28.274Z,1.50
2022-09-13T06:38:56.926Z,2.15
2022-09-13T06:41:27.088Z,1.95
2022-09-13T06:43:58.782Z,1.70
2022-09-13T06:46:28.716Z,1.90
2022-09-13T06:48:59.567Z,2.00
2022-09-13T06:51:29.563Z,1.80
2022-09-13T06:53:57.887Z,2.10
2022-09-13T06:56:28.080Z,2.20
2022-09-13T06:59:00.323Z,1.90
2022-09-13T07:01:31.419Z,1.80
2022-09-13T07:04:01.821Z,1.80
2022-09-13T07:06:32.205Z,2.20
2022-09-13T07:09:02.848Z,2.47
2022-09-13T07:11:33.286Z,2.50
2022-09-13T07:14:03.151Z,2.00
2022-09-13T07:16:33.008Z,2.30
2022-09-13T07:19:05.510Z,2.35
2022-09-13T07:21:35.424Z,1.85
2022-09-13T07:24:03.551Z,2.38
2022-09-13T07:26:31.966Z,2.25
2022-09-13T07:29:03.392Z,2.45
2022-09-13T07:31:37.947Z,2.17
2022-09-13T07:34:08.790Z,2.17
2022-09-13T07:39:06.308Z,1.83
2022-09-13T07:41:35.432Z,2.53
2022-09-13T07:44:06.542Z,2.28
2022-09-13T07:46:43.666Z,2.35
2022-09-13T07:49:13.057Z,2.35
2022-09-13T07:51:43.421Z,2.50
2022-09-13T07:54:18.408Z,2.05
2022-09-13T07:56:46.409Z,2.42
2022-09-13T07:59:17.477Z,2.60
2022-09-13T08:01:47.807Z,2.53
2022-09-13T08:04:18.981Z,2.58
2022-09-13T08:06:47.486Z,2.15
2022-09-13T08:09:16.327Z,2.03
2022-09-13T08:11:46.329Z,3.05
2022-09-13T08:14:18.072Z,3.07
2022-09-13T08:16:45.908Z,2.33
2022-09-13T08:19:15.982Z,2.65
2022-09-13T08:21:44.161Z,2.63
2022-09-13T08:24:16.642Z,2.67
2022-09-13T08:26:44.535Z,2.63
2022-09-13T08:29:15.291Z,2.90
2022-09-13T08:31:43.615Z,2.10
2022-09-13T08:34:14.456Z,2.40
2022-09-13T08:39:12.787Z,2.38
2022-09-13T08:42:21.964Z,2.53
2022-09-13T08:44:55.808Z,2.30
2022-09-13T08:47:35.695Z,2.33
2022-09-13T08:50:15.427Z,2.38
2022-09-13T08:52:57.735Z,2.17
2022-09-13T08:55:39.826Z,1.95
2022-09-13T08:58:39.882Z,2.40
2022-09-13T09:01:15.839Z,2.47
2022-09-13T09:03:52.851Z,2.58
2022-09-13T09:06:22.686Z,2.60
2022-09-13T09:08:58.848Z,2.20
2022-09-13T09:11:35.263Z,2.38
2022-09-13T09:14:10.011Z,2.55
2022-09-13T09:16:46.776Z,2.42
2022-09-13T09:19:24.230Z,2.25
2022-09-13T09:21:52.834Z,2.60
2022-09-13T09:24:25.231Z,2.15
2022-09-13T09:26:56.737Z,2.30
2022-09-13T09:29:28.529Z,2.40
2022-09-13T09:32:16.699Z,2.20
2022-09-13T09:35:03.121Z,1.73
2022-09-13T09:37:31.982Z,2.10
2022-09-13T09:40:04.355Z,2.28
2022-09-13T09:42:40.333Z,1.90
2022-09-13T09:45:28.490Z,2.10
2022-09-13T09:48:03.658Z,2.58
2022-09-13T09:50:37.499Z,1.83
2022-09-13T09:53:14.463Z,2.55
2022-09-13T09:55:48.511Z,2.05
2022-09-13T09:58:18.101Z,1.98
2022-09-13T10:00:54.744Z,2.13
2022-09-13T10:03:28.524Z,1.98
2022-09-13T10:06:07.494Z,2.17
2022-09-13T10:08:38.086Z,1.90
2022-09-13T10:11:07.686Z,1.75
2022-09-13T10:13:37.662Z,1.98
2022-09-13T10:16:08.610Z,2.17
2022-09-13T10:21:25.750Z,1.55
2022-09-13T10:24:16.718Z,1.73
2022-09-13T10:26:44.638Z,1.95
2022-09-13T10:29:18.957Z,2.03
2022-09-13T10:31:50.877Z,1.80
2022-09-13T10:34:23.872Z,2.15
2022-09-13T10:36:58.553Z,2.05
2022-09-13T10:39:29.544Z,2.13
2022-09-13T10:42:02.190Z,1.95
2022-09-13T10:44:34.652Z,2.13
2022-09-13T10:47:08.771Z,1.98
2022-09-13T10:49:43.518Z,1.90
2022-09-13T10:52:36.709Z,1.60
2022-09-13T10:55:34.655Z,2.10
2022-09-13T10:58:19.901Z,1.50
2022-09-13T11:01:18.587Z,2.00
2022-09-13T11:04:33.663Z,2.20
2022-09-13T11:07:31.738Z,1.77
2022-09-13T11:10:08.637Z,1.83
2022-09-13T11:12:46.802Z,1.92
2022-09-13T11:15:32.610Z,2.00
2022-09-13T11:18:31.052Z,1.65
2022-09-13T11:21:11.580Z,1.90
2022-09-13T11:24:23.542Z,2.17
2022-09-13T11:27:02.892Z,2.08
2022-09-13T11:29:52.132Z,1.90
2022-09-13T11:32:40.215Z,2.35
2022-09-13T11:35:31.072Z,2.28
2022-09-13T11:38:20.406Z,2.10
2022-09-13T11:41:00.844Z,2.22
2022-09-13T11:43:49.158Z,2.33
2022-09-13T11:46:28.237Z,2.15
2022-09-13T11:49:17.255Z,2.35
2022-09-13T11:52:02.001Z,2.03
2022-09-13T11:54:56.172Z,2.35
2022-09-13T11:57:32.791Z,2.17
2022-09-13T12:00:06.417Z,2.10
2022-09-13T12:02:45.048Z,2.25
2022-09-13T12:05:22.839Z,2.22
2022-09-13T12:07:57.498Z,1.98
2022-09-13T12:10:30.832Z,2.03
2022-09-13T12:13:03.521Z,2.00
2022-09-13T12:15:38.593Z,1.80
2022-09-13T12:18:14.962Z,2.10
2022-09-13T12:20:49.344Z,2.10
2022-09-13T12:23:22.166Z,2.28
2022-09-13T12:25:58.562Z,2.05
2022-09-13T12:28:35.118Z,1.85
2022-09-13T12:31:11.103Z,1.70
2022-09-13T12:33:41.743Z,2.58
2022-09-13T12:36:39.229Z,1.98
2022-09-13T12:39:40.977Z,2.17
2022-09-13T12:43:00.126Z,2.00
2022-09-13T12:45:51.921Z,1.98
2022-09-13T12:48:46.696Z,2.05
2022-09-13T12:51:28.325Z,1.98
2022-09-13T12:54:31.502Z,2.55
2022-09-13T12:57:18.299Z,2.15
2022-09-13T13:00:20.492Z,2.10
2022-09-13T13:03:05.488Z,1.88
2022-09-13T13:05:38.086Z,1.92
2022-09-13T13:08:25.590Z,2.33
2022-09-13T13:11:03.897Z,1.75
2022-09-13T13:13:37.643Z,1.83
2022-09-13T13:16:24.827Z,2.13
2022-09-13T13:18:55.610Z,1.75
2022-09-13T13:21:32.441Z,1.90
2022-09-13T13:24:47.999Z,1.90
2022-09-13T13:27:48.422Z,1.70
2022-09-13T13:30:59.046Z,1.45
2022-09-13T13:33:31.927Z,1.53
2022-09-13T13:36:24.827Z,1.50
2022-09-13T13:38:53.634Z,1.77
2022-09-13T13:41:47.993Z,1.52
2022-09-13T13:45:11.359Z,1.80
2022-09-13T13:48:13.107Z,1.80
2022-09-13T13:51:19.813Z,1.80
2022-09-13T13:53:54.380Z,1.88
2022-09-13T13:56:30.890Z,1.40
2022-09-13T13:59:06.476Z,1.80
2022-09-13T14:01:39.858Z,1.85
2022-09-13T14:04:58.296Z,1.98
2022-09-13T14:08:01.486Z,2.20
2022-09-13T14:10:44.834Z,1.83
2022-09-13T14:13:51.137Z,1.90
2022-09-13T14:16:38.982Z,1.85
2022-09-13T14:19:20.987Z,2.13
2022-09-13T14:22:07.955Z,2.13
2022-09-13T14:24:43.102Z,1.98
2022-09-13T14:27:18.811Z,2.10
2022-09-13T14:29:49.566Z,1.90
2022-09-13T14:32:22.616Z,1.85
2022-09-13T14:35:24.895Z,1.98
2022-09-13T14:37:53.111Z,1.90
2022-09-13T14:40:27.555Z,2.20
2022-09-13T14:42:57.277Z,1.85
2022-09-13T14:45:32.054Z,2.10
2022-09-13T14:48:07.992Z,2.10
2022-09-13T14:50:40.632Z,2.00
2022-09-13T14:53:15.456Z,2.33
2022-09-13T14:55:52.396Z,2.15
2022-09-13T14:58:25.199Z,1.90
2022-09-13T15:01:00.293Z,2.08
2022-09-13T15:03:28.855Z,2.00
2022-09-13T15:06:00.513Z,2.10
2022-09-13T15:08:48.938Z,1.90
2022-09-13T15:11:32.189Z,1.98
2022-09-13T15:14:25.832Z,1.67
2022-09-13T15:16:59.384Z,2.00
2022-09-13T15:19:38.971Z,1.83
2022-09-13T15:22:16.112Z,1.95
2022-09-13T15:24:48.452Z,1.98
2022-09-13T15:27:26.157Z,2.08
2022-09-13T15:29:57.265Z,1.98
2022-09-13T15:32:33.209Z,2.10
2022-09-13T15:35:02.770Z,2.08
2022-09-13T15:37:35.832Z,1.88
2022-09-13T15:40:15.770Z,1.85
2022-09-13T15:42:49.276Z,2.10
2022-09-13T15:45:18.415Z,1.83
2022-09-13T15:47:48.888Z,1.83
2022-09-13T15:50:23.666Z,2.00
2022-09-13T15:52:51.396Z,2.10
2022-09-13T15:55:19.471Z,2.05
2022-09-13T15:57:49.175Z,2.05
2022-09-13T16:00:23.246Z,2.25
2022-09-13T16:02:51.661Z,2.22
2022-09-13T16:05:20.501Z,1.75
2022-09-13T16:07:48.281Z,1.88
2022-09-13T16:10:20.547Z,2.05
2022-09-13T16:12:50.107Z,2.20
2022-09-13T16:15:18.861Z,1.88
2022-09-13T16:17:46.523Z,1.88
2022-09-13T16:20:16.935Z,1.92
2022-09-13T16:22:44.909Z,1.63
2022-09-13T16:25:14.213Z,1.90
2022-09-13T16:27:44.583Z,2.00
2022-09-13T16:30:17.017Z,1.77
2022-09-13T16:32:44.730Z,1.83
2022-09-13T16:35:13.861Z,1.98
2022-09-13T16:37:42.722Z,2.13
2022-09-13T16:40:11.948Z,2.40
2022-09-13T16:42:40.070Z,2.25
2022-09-13T16:45:09.345Z,2.25
2022-09-13T16:47:38.618Z,2.10
2022-09-13T16:50:08.147Z,2.05
2022-09-13T16:52:37.621Z,1.90
2022-09-13T16:55:07.101Z,2.40
2022-09-13T16:57:34.785Z,2.35
2022-09-13T17:00:06.669Z,2.20
2022-09-13T17:02:34.353Z,1.83
2022-09-13T17:05:05.114Z,2.05
2022-09-13T17:07:32.941Z,1.88
2022-09-13T17:10:01.153Z,2.15
2022-09-13T17:12:28.809Z,1.60
2022-09-13T17:14:57.442Z,1.80
2022-09-13T17:17:25.081Z,1.75
2022-09-13T17:19:52.947Z,1.70
2022-09-13T17:22:21.943Z,1.92
2022-09-13T17:24:49.560Z,2.05
2022-09-13T17:27:17.309Z,1.83
2022-09-13T17:29:44.916Z,2.15
2022-09-13T17:32:12.493Z,1.80
2022-09-13T17:34:40.090Z,1.80
2022-09-13T17:37:08.201Z,1.75
2022-09-13T17:39:37.199Z,1.63
2022-09-13T17:42:05.109Z,1.60
2022-09-13T17:44:32.714Z,1.67
2022-09-13T17:47:02.043Z,2.00
2022-09-13T17:49:29.665Z,2.13
2022-09-13T17:51:57.913Z,1.88
2022-09-13T17:54:26.075Z,1.80
2022-09-13T17:56:55.051Z,1.73
2022-09-13T17:59:23.416Z,1.65
2022-09-13T18:01:56.339Z,1.88
2022-09-13T18:04:24.740Z,2.00
2022-09-13T18:06:53.001Z,1.83
2022-09-13T18:09:21.535Z,1.85
2022-09-13T18:11:49.583Z,1.90
2022-09-13T18:14:20.209Z,2.00
2022-09-13T18:16:49.308Z,1.73
2022-09-13T18:19:17.217Z,1.70
2022-09-13T18:21:44.860Z,1.88
2022-09-13T18:24:12.483Z,1.90
2022-09-13T18:26:40.148Z,2.13
2022-09-13T18:29:13.043Z,1.88
2022-09-13T18:31:43.481Z,1.80
2022-09-13T18:34:15.007Z,2.08
2022-09-13T18:36:43.313Z,2.00
2022-09-13T18:39:17.717Z,1.90
2022-09-13T18:41:46.909Z,1.70
2022-09-13T18:44:15.918Z,2.10
2022-09-13T18:46:46.520Z,1.52
2022-09-13T18:49:14.995Z,1.70
2022-09-13T18:51:45.574Z,1.83
2022-09-13T18:54:16.138Z,1.90
2022-09-13T18:56:44.230Z,1.90
2022-09-13T18:59:12.694Z,1.80
2022-09-13T19:01:43.261Z,2.17
2022-09-13T19:04:14.963Z,1.98
2022-09-13T19:06:45.183Z,2.60
2022-09-13T19:09:14.390Z,6.90
2022-09-13T19:11:47.270Z,18.20
2022-09-13T19:14:17.666Z,28.45
2022-09-13T19:16:45.839Z,37.15
2022-09-13T19:19:14.875Z,44.47
2022-09-13T19:21:42.796Z,45.95
2022-09-13T19:24:17.647Z,50.05
2022-09-13T19:26:48.471Z,48.10
2022-09-13T19:29:18.957Z,48.67
2022-09-13T19:31:49.281Z,43.80
2022-09-13T19:34:20.583Z,35.75
2022-09-13T19:36:50.551Z,34.58
2022-09-13T19:39:18.507Z,35.63
2022-09-13T19:41:46.259Z,34.35
2022-09-13T19:44:14.981Z,34.42
2022-09-13T19:46:43.488Z,35.35
2022-09-13T19:49:15.145Z,35.40
2022-09-13T19:51:50.146Z,38.10
2022-09-13T19:54:20.475Z,36.63
2022-09-13T19:56:48.155Z,36.10
2022-09-13T19:59:19.716Z,37.97
2022-09-13T20:01:49.066Z,37.10
2022-09-13T20:04:20.716Z,37.85
2022-09-13T20:06:52.037Z,36.97
2022-09-13T20:09:21.563Z,38.15
2022-09-13T20:11:49.915Z,35.42
2022-09-13T20:14:20.260Z,34.65
2022-09-13T20:16:48.694Z,33.97
2022-09-13T20:22:09.726Z,32.65
2022-09-13T20:24:37.430Z,29.85
2022-09-13T20:27:05.661Z,30.73
2022-09-13T20:29:33.410Z,29.63
2022-09-13T20:32:02.176Z,27.92
2022-09-13T20:34:29.888Z,28.63
2022-09-13T20:36:57.559Z,26.73
2022-09-13T20:39:26.540Z,25.77
2022-09-13T20:41:54.580Z,23.80
2022-09-13T20:44:22.245Z,24.17
2022-09-13T20:46:49.934Z,23.92
2022-09-13T20:49:17.659Z,22.15
2022-09-13T20:51:46.499Z,23.08
2022-09-13T20:54:14.221Z,19.33
2022-09-13T20:56:43.211Z,19.38
2022-09-13T20:59:11.032Z,19.58
2022-09-13T21:01:39.628Z,18.42
2022-09-13T21:04:07.389Z,17.20
2022-09-13T21:06:40.065Z,16.25
2022-09-13T21:09:06.785Z,17.48
2022-09-13T21:11:37.551Z,15.68
2022-09-13T21:14:09.366Z,16.75
2022-09-13T21:16:40.652Z,15.50
2022-09-13T21:19:09.047Z,15.45
2022-09-13T21:21:40.336Z,15.80
2022-09-13T21:24:11.959Z,15.88
2022-09-13T21:26:42.181Z,15.02
2022-09-13T21:29:12.810Z,16.00
2022-09-13T21:31:41.362Z,14.20
2022-09-13T21:34:14.453Z,12.43
2022-09-13T21:36:42.620Z,12.43
2022-09-13T21:39:10.753Z,13.07
2022-09-13T21:41:38.513Z,13.45
2022-09-13T21:44:06.568Z,13.60
2022-09-13T21:46:38.163Z,12.77
2022-09-13T21:49:08.023Z,12.68
2022-09-13T21:51:37.903Z,12.05
2022-09-13T21:54:08.551Z,12.70
2022-09-13T21:56:38.224Z,13.38
2022-09-13T21:59:09.035Z,13.00
2022-09-13T22:01:40.337Z,12.55
2022-09-13T22:04:10.754Z,11.88
2022-09-13T22:06:38.384Z,12.00
2022-09-13T22:09:09.009Z,12.82
2022-09-13T22:11:43.520Z,12.02
2022-09-13T22:14:14.377Z,12.50
2022-09-13T22:19:15.663Z,10.50
2022-09-13T22:21:46.453Z,10.60
2022-09-13T22:24:17.645Z,11.55
2022-09-13T22:26:47.294Z,11.50
2022-09-13T22:29:16.228Z,11.65
2022-09-13T22:31:48.164Z,11.85
2022-09-13T22:34:18.882Z,10.95
2022-09-13T22:36:46.805Z,11.70
2022-09-13T22:39:17.142Z,11.20
2022-09-13T22:41:45.518Z,9.98
2022-09-13T22:44:13.709Z,10.65
2022-09-13T22:46:43.615Z,10.82
2022-09-13T22:49:15.986Z,11.65
2022-09-13T22:51:45.501Z,11.60
2022-09-13T22:54:14.200Z,11.05
2022-09-13T22:56:42.494Z,10.20
2022-09-13T22:59:14.544Z,10.05
2022-09-13T23:01:42.803Z,10.85
2022-09-13T23:04:11.257Z,11.15
2022-09-13T23:06:43.627Z,9.80
2022-09-13T23:09:15.202Z,10.50
2022-09-13T23:11:43.447Z,9.95
2022-09-13T23:14:14.460Z,10.10
2022-09-13T23:16:45.062Z,9.88
2022-09-13T23:19:14.495Z,11.13
2022-09-13T23:21:44.926Z,10.45
2022-09-13T23:24:16.555Z,10.45
2022-09-13T23:26:46.332Z,10.25
2022-09-13T23:29:16.898Z,10.35
2022-09-13T23:31:46.792Z,9.75
2022-09-13T23:34:15.918Z,9.50
2022-09-13T23:36:46.542Z,10.00
2022-09-13T23:39:18.408Z,9.93
2022-09-13T23:41:48.235Z,9.18
2022-09-13T23:44:16.715Z,9.65
2022-09-13T23:46:45.070Z,9.32
2022-09-13T23:49:12.736Z,9.65
2022-09-13T23:51:40.647Z,9.13
2022-09-13T23:54:10.417Z,9.00
2022-09-13T23:56:38.025Z,9.32
2022-09-13T23:59:06.773Z,10.38
